Turkey Creek, Louisiana
Current Conditions -  °F | °C
As of 3:35 PM on Friday 19 Dec 2014 (Local Time) from KACP Reporting Station
Overcast Overcast  
Wind Chill: 53°   Ceiling: 1000
Heat Index: 53°   Visibility: 10mi
Dew Point: 51°   Wind: 7mph
Humidity: 92%   Direction: 10°N
Pressure: 30.05"   Gusts: 17mph
Location:  30.88°N, 92.41°W
Report Text: KACP 192135Z AUTO 01006G15KT 10SM OVC010 12/11 A3005 RMK AO2 T01180105
Loading
Personal Weather Stations






























Interactive Weather Map New forecast layout! Learn more

10-Day Weather Forecast

Advertisements
Track Severe Weather on mobile